Time;durP1;ratioP1;P1;durP2;ratioP2;P2;SDS_P1;SDS_P2;PMS_P1;PMS_P2;Temp;Humidity;BMP_temperature;BMP_pressure;BME280_temperature;BME280_humidity;BME280_pressure;Samples;Min_cycle;Max_cycle;Signal;HPM_P1;HPM_P2
2021/12/02 00:01:42;;;;;;;0.33;0.33;;;6.10;99.90;;;;;;5052366;28;20137;-76
2021/12/02 00:04:09;;;;;;;0.20;0.20;;;6.00;99.90;;;;;;5051762;28;20075;-76
2021/12/02 00:06:36;;;;;;;1.23;0.40;;;5.90;99.90;;;;;;5052203;28;20051;-75
2021/12/02 00:09:04;;;;;;;0.20;0.20;;;5.90;99.90;;;;;;5052152;28;20044;-74
2021/12/02 00:11:31;;;;;;;0.20;0.20;;;5.90;99.90;;;;;;5051118;28;20048;-75
2021/12/02 00:14:00;;;;;;;4.33;0.40;;;5.90;99.90;;;;;;5051784;28;20049;-75
2021/12/02 00:16:33;;;;;;;1.43;0.40;;;5.90;99.90;;;;;;5052200;28;20049;-75
2021/12/02 00:21:50;;;;;;;4.90;0.30;;;5.90;99.90;;;;;;5051839;28;20126;-76
2021/12/02 00:24:19;;;;;;;0.87;0.40;;;5.90;99.90;;;;;;5051561;28;20373;-75
2021/12/02 00:26:47;;;;;;;2.33;0.43;;;5.80;99.90;;;;;;5052226;28;20045;-75
2021/12/02 00:39:22;;;;;;;0.77;0.60;;;5.70;99.90;;;;;;5050734;28;20102;-75
2021/12/02 00:45:11;;;;;;;0.22;0.22;;;5.60;99.90;;;;;;5051142;28;20040;-76
2021/12/02 00:47:38;;;;;;;2.10;0.93;;;5.70;99.90;;;;;;5051679;28;20489;-76
2021/12/02 00:50:06;;;;;;;1.90;0.47;;;5.70;99.90;;;;;;5051801;28;20045;-76
2021/12/02 00:52:33;;;;;;;0.30;0.27;;;5.70;99.90;;;;;;5051631;28;20416;-75
2021/12/02 00:55:04;;;;;;;2.53;0.70;;;5.70;99.90;;;;;;5051165;28;20060;-77
2021/12/02 00:57:31;;;;;;;0.30;0.30;;;5.70;99.90;;;;;;5052033;28;20513;-76
2021/12/02 00:59:58;;;;;;;1.80;0.67;;;5.80;99.90;;;;;;5051959;28;20045;-74
2021/12/02 01:02:25;;;;;;;0.50;0.40;;;5.70;99.90;;;;;;5051728;28;20093;-75
2021/12/02 01:04:53;;;;;;;0.20;0.20;;;5.80;99.90;;;;;;5051112;28;20048;-75
2021/12/02 01:07:19;;;;;;;2.77;0.60;;;5.80;99.90;;;;;;5051605;28;20041;-74
2021/12/02 01:09:48;;;;;;;3.73;0.50;;;5.70;99.90;;;;;;5052011;28;20079;-74
2021/12/02 01:12:17;;;;;;;1.27;0.43;;;5.60;99.90;;;;;;5051673;28;20045;-74
2021/12/02 01:14:44;;;;;;;1.60;0.53;;;5.50;99.90;;;;;;5050994;28;20819;-76
2021/12/02 01:17:10;;;;;;;3.97;0.47;;;5.40;99.90;;;;;;5051442;28;20072;-75
2021/12/02 01:19:37;;;;;;;4.53;0.67;;;5.10;99.90;;;;;;5051486;28;20091;-74
2021/12/02 01:22:05;;;;;;;0.60;0.60;;;4.80;99.90;;;;;;5053268;28;20045;-76
2021/12/02 01:24:33;;;;;;;3.80;0.43;;;4.70;99.90;;;;;;5055065;28;20045;-76
2021/12/02 01:27:02;;;;;;;0.90;0.60;;;4.60;99.90;;;;;;5055042;28;20048;-75
2021/12/02 01:29:33;;;;;;;0.53;0.53;;;4.50;99.90;;;;;;5055199;28;20095;-76
2021/12/02 01:32:06;;;;;;;0.20;0.20;;;4.30;99.90;;;;;;5055549;28;20080;-75
2021/12/02 01:34:33;;;;;;;0.60;0.40;;;4.10;99.90;;;;;;5054411;28;20055;-75
2021/12/02 01:37:01;;;;;;;0.10;0.10;;;4.00;99.90;;;;;;5055072;28;20554;-75
2021/12/02 01:39:30;;;;;;;0.40;0.27;;;3.90;99.90;;;;;;5055232;28;20048;-77
2021/12/02 01:41:59;;;;;;;0.20;0.20;;;3.80;99.90;;;;;;5055271;28;20053;-78
2021/12/02 01:44:28;;;;;;;0.93;0.67;;;3.80;99.90;;;;;;5054702;28;20049;-76
2021/12/02 01:46:58;;;;;;;0.27;0.10;;;3.80;99.90;;;;;;5055293;28;20099;-77
2021/12/02 01:49:29;;;;;;;0.10;0.10;;;3.70;99.90;;;;;;5055419;28;20048;-77
2021/12/02 01:55:18;;;;;;;0.37;0.20;;;3.60;99.90;;;;;;5055729;28;20047;-75
2021/12/02 01:57:54;;;;;;;1.70;0.40;;;3.60;99.90;;;;;;5056681;28;20339;-78
2021/12/02 02:00:23;;;;;;;0.40;0.20;;;3.60;99.90;;;;;;5055127;28;20420;-78
2021/12/02 02:02:52;;;;;;;0.10;0.10;;;3.60;99.90;;;;;;5054257;28;20088;-76
2021/12/02 02:05:19;;;;;;;0.10;0.10;;;3.60;99.90;;;;;;5053919;28;20053;-77
2021/12/02 02:07:55;;;;;;;0.73;0.40;;;3.70;99.90;;;;;;5054519;28;20110;-76
2021/12/02 02:10:22;;;;;;;0.10;0.10;;;3.70;99.90;;;;;;5054517;28;20060;-75
2021/12/02 02:12:49;;;;;;;0.10;0.10;;;3.70;99.90;;;;;;5054650;28;20049;-77
2021/12/02 02:15:15;;;;;;;1.07;0.37;;;3.60;99.90;;;;;;5053684;28;20052;-73
2021/12/02 02:17:48;;;;;;;0.30;0.30;;;3.70;99.90;;;;;;5054549;28;20091;-76
2021/12/02 02:20:16;;;;;;;0.43;0.27;;;3.70;99.90;;;;;;5054182;28;20507;-75
2021/12/02 02:22:44;;;;;;;0.50;0.37;;;3.70;99.90;;;;;;5052717;28;20459;-74
2021/12/02 02:25:13;;;;;;;0.10;0.10;;;3.80;99.90;;;;;;5053746;28;20052;-77
2021/12/02 02:27:40;;;;;;;0.57;0.27;;;3.80;99.90;;;;;;5053965;28;20045;-77
2021/12/02 02:30:10;;;;;;;0.10;0.10;;;3.80;99.90;;;;;;5054275;28;20084;-77
2021/12/02 02:32:37;;;;;;;0.40;0.20;;;3.80;99.90;;;;;;5053464;28;20049;-76
2021/12/02 02:35:05;;;;;;;0.20;0.20;;;3.80;99.90;;;;;;5052981;28;20100;-77
2021/12/02 02:37:34;;;;;;;0.10;0.10;;;3.70;99.90;;;;;;5053975;28;20041;-77
2021/12/02 02:40:04;;;;;;;0.10;0.10;;;3.70;99.90;;;;;;5053912;28;20045;-76
2021/12/02 02:42:31;;;;;;;0.97;0.63;;;3.60;99.90;;;;;;5053914;28;20056;-78
2021/12/02 02:44:59;;;;;;;0.10;0.10;;;3.60;99.90;;;;;;5053681;28;20374;-77
2021/12/02 02:47:27;;;;;;;0.57;0.10;;;3.60;99.90;;;;;;5055291;28;20095;-77
2021/12/02 02:49:54;;;;;;;0.20;0.20;;;3.60;99.90;;;;;;5054242;28;20051;-77
2021/12/02 02:52:20;;;;;;;0.20;0.20;;;3.50;99.90;;;;;;5053668;28;20512;-76
2021/12/02 02:54:48;;;;;;;3.40;0.30;;;3.60;99.90;;;;;;5053071;28;20477;-76
2021/12/02 02:57:17;;;;;;;0.57;0.40;;;3.60;99.90;;;;;;5053427;28;20049;-76
2021/12/02 02:59:58;;;;;;;0.47;0.30;;;3.60;99.90;;;;;;5053579;28;20136;-76
2021/12/02 03:02:31;;;;;;;0.65;0.57;;;3.60;99.90;;;;;;5053566;28;20081;-75
2021/12/02 03:05:02;;;;;;;0.23;0.20;;;3.60;99.90;;;;;;5053376;28;20069;-76
2021/12/02 03:07:35;;;;;;;0.20;0.20;;;3.60;99.90;;;;;;5053616;28;20049;-75
2021/12/02 03:10:10;;;;;;;0.30;0.30;;;3.60;99.90;;;;;;5053318;28;20041;-76
2021/12/02 03:12:40;;;;;;;0.10;0.10;;;3.70;99.90;;;;;;5053169;28;20056;-75
2021/12/02 03:17:52;;;;;;;0.43;0.30;;;3.70;99.90;;;;;;5054203;28;20076;-75
2021/12/02 03:20:18;;;;;;;0.40;0.20;;;3.80;99.90;;;;;;5054406;28;20076;-76
2021/12/02 03:22:45;;;;;;;0.87;0.87;;;3.80;99.90;;;;;;5054119;28;20049;-77
2021/12/02 03:25:12;;;;;;;1.33;0.43;;;3.70;99.90;;;;;;5054005;28;20045;-76
2021/12/02 03:27:40;;;;;;;1.53;0.67;;;3.70;99.90;;;;;;5054393;28;20098;-77
2021/12/02 03:30:08;;;;;;;1.43;0.63;;;3.70;99.90;;;;;;5054325;28;20052;-76
2021/12/02 03:32:36;;;;;;;0.60;0.40;;;3.70;99.90;;;;;;5054041;28;20060;-77
2021/12/02 03:35:05;;;;;;;0.73;0.53;;;3.70;99.90;;;;;;5053416;28;20044;-76
2021/12/02 03:37:31;;;;;;;1.70;0.30;;;3.60;99.90;;;;;;5052875;28;20041;-75
2021/12/02 03:39:58;;;;;;;0.37;0.37;;;3.60;99.90;;;;;;5052670;28;20076;-75
2021/12/02 03:42:25;;;;;;;1.13;0.60;;;3.60;99.90;;;;;;5052548;28;20232;-75
2021/12/02 03:44:53;;;;;;;0.17;0.17;;;3.60;99.90;;;;;;5051791;28;20037;-76
2021/12/02 03:47:19;;;;;;;0.40;0.20;;;3.60;99.90;;;;;;5052638;28;20048;-77
2021/12/02 03:49:46;;;;;;;2.90;0.33;;;3.50;99.90;;;;;;5052541;28;20094;-77
2021/12/02 03:52:13;;;;;;;1.03;0.30;;;3.60;99.90;;;;;;5052278;28;20053;-77
2021/12/02 03:54:39;;;;;;;1.10;0.47;;;3.50;99.90;;;;;;5051770;28;20463;-76
2021/12/02 03:57:06;;;;;;;0.47;0.20;;;3.60;99.90;;;;;;5052754;28;20064;-77
2021/12/02 03:59:33;;;;;;;0.73;0.20;;;3.60;99.90;;;;;;5052589;28;20076;-78
2021/12/02 04:02:01;;;;;;;0.23;0.23;;;3.60;99.90;;;;;;5052342;28;20045;-78
2021/12/02 04:04:28;;;;;;;0.20;0.20;;;3.60;99.90;;;;;;5052171;28;20096;-76
2021/12/02 04:06:55;;;;;;;0.90;0.30;;;3.60;99.90;;;;;;5052266;28;20095;-77
2021/12/02 04:09:23;;;;;;;0.40;0.40;;;3.60;99.90;;;;;;5052756;28;20079;-77
2021/12/02 04:11:56;;;;;;;1.10;0.70;;;3.60;99.90;;;;;;5052434;28;20056;-77
2021/12/02 04:14:26;;;;;;;0.30;0.30;;;3.70;99.90;;;;;;5051977;28;20106;-77
2021/12/02 04:16:54;;;;;;;0.20;0.20;;;3.60;99.90;;;;;;5052011;28;20055;-77
2021/12/02 04:19:24;;;;;;;2.10;1.03;;;3.70;99.90;;;;;;5052058;28;20052;-76
2021/12/02 04:21:51;;;;;;;0.40;0.40;;;3.60;99.90;;;;;;5051878;28;20044;-77
2021/12/02 04:24:18;;;;;;;0.30;0.30;;;3.70;99.90;;;;;;5051565;28;20103;-76
2021/12/02 04:26:45;;;;;;;0.30;0.20;;;3.70;99.90;;;;;;5051811;28;20048;-76
2021/12/02 04:29:12;;;;;;;1.33;0.50;;;3.70;99.90;;;;;;5051941;28;20080;-76
2021/12/02 04:31:41;;;;;;;0.40;0.20;;;3.70;99.90;;;;;;5051963;28;20414;-74
2021/12/02 04:34:08;;;;;;;0.63;0.30;;;3.60;99.90;;;;;;5051357;28;20045;-75
2021/12/02 04:36:36;;;;;;;0.33;0.30;;;3.60;99.90;;;;;;5051859;28;20095;-76
2021/12/02 04:39:03;;;;;;;4.80;0.20;;;3.50;99.90;;;;;;5051714;28;20072;-76
2021/12/02 04:41:29;;;;;;;0.70;0.33;;;3.50;99.90;;;;;;5051584;28;20083;-77
2021/12/02 04:43:56;;;;;;;0.17;0.10;;;3.60;99.90;;;;;;5051353;28;20079;-75
2021/12/02 04:46:23;;;;;;;0.73;0.20;;;3.50;99.90;;;;;;5051689;28;20417;-74
2021/12/02 04:48:50;;;;;;;0.40;0.30;;;3.50;99.90;;;;;;5052524;28;20049;-75
2021/12/02 04:51:17;;;;;;;0.23;0.23;;;3.40;99.90;;;;;;5053517;28;20080;-80
2021/12/02 04:53:45;;;;;;;2.40;0.70;;;3.40;99.90;;;;;;5054060;28;20045;-78
2021/12/02 04:56:12;;;;;;;0.43;0.40;;;3.40;99.90;;;;;;5052094;28;20110;-75
2021/12/02 04:58:39;;;;;;;0.20;0.20;;;3.40;99.90;;;;;;5055977;28;20049;-77
2021/12/02 05:01:05;;;;;;;1.03;0.30;;;3.40;99.90;;;;;;5055430;28;20103;-75
2021/12/02 05:03:32;;;;;;;2.93;0.50;;;3.30;99.90;;;;;;5055333;28;20044;-73
2021/12/02 05:05:59;;;;;;;0.93;0.50;;;3.30;99.90;;;;;;5054959;28;20368;-77
2021/12/02 05:08:26;;;;;;;0.43;0.10;;;3.40;99.90;;;;;;5055717;28;20049;-77
2021/12/02 05:10:54;;;;;;;1.30;0.20;;;3.40;99.90;;;;;;5055811;28;20412;-75
2021/12/02 05:13:20;;;;;;;0.50;0.50;;;3.40;99.90;;;;;;5057066;28;20451;-79
2021/12/02 05:15:47;;;;;;;0.10;0.10;;;3.40;99.90;;;;;;5058172;28;20045;-78
2021/12/02 05:18:14;;;;;;;0.10;0.10;;;3.40;99.90;;;;;;5056562;28;20689;-72
2021/12/02 05:20:40;;;;;;;0.10;0.10;;;3.30;99.90;;;;;;5055405;28;20447;-73
2021/12/02 05:23:07;;;;;;;3.77;0.67;;;3.30;99.90;;;;;;5055219;28;20045;-75
2021/12/02 05:25:34;;;;;;;0.23;0.23;;;3.20;99.90;;;;;;5055433;28;20045;-74
2021/12/02 05:28:02;;;;;;;0.73;0.30;;;3.20;99.90;;;;;;5055412;28;20099;-77
2021/12/02 05:30:28;;;;;;;3.30;1.03;;;3.20;99.90;;;;;;5056412;28;20049;-78
2021/12/02 05:32:55;;;;;;;0.13;0.13;;;3.30;99.90;;;;;;5056086;28;20473;-76
2021/12/02 05:35:22;;;;;;;0.20;0.20;;;3.30;99.90;;;;;;5055048;28;20099;-78
2021/12/02 05:37:48;;;;;;;0.30;0.30;;;3.30;99.90;;;;;;5055910;28;20049;-76
2021/12/02 05:40:15;;;;;;;2.63;0.30;;;3.30;99.90;;;;;;5057161;28;20041;-79
2021/12/02 05:42:42;;;;;;;1.43;0.17;;;3.20;99.90;;;;;;5057323;28;20175;-74
2021/12/02 05:45:10;;;;;;;0.30;0.30;;;3.20;99.90;;;;;;5054732;28;20045;-78
2021/12/02 05:47:37;;;;;;;0.57;0.57;;;3.10;99.90;;;;;;5054929;28;20064;-76
2021/12/02 05:50:06;;;;;;;0.73;0.30;;;3.10;99.90;;;;;;5054720;28;20075;-76
2021/12/02 05:52:33;;;;;;;0.77;0.40;;;3.10;99.90;;;;;;5054758;28;20076;-78
2021/12/02 05:55:00;;;;;;;0.40;0.20;;;3.10;99.90;;;;;;5053935;28;20550;-78
2021/12/02 05:57:28;;;;;;;2.47;0.50;;;3.10;99.90;;;;;;5055342;28;20489;-76
2021/12/02 05:59:55;;;;;;;0.40;0.40;;;3.10;99.90;;;;;;5054680;28;20080;-74
2021/12/02 06:02:23;;;;;;;0.27;0.27;;;3.10;99.90;;;;;;5054518;28;20432;-75
2021/12/02 06:04:52;;;;;;;0.23;0.23;;;3.10;99.90;;;;;;5053837;28;20041;-74
2021/12/02 06:07:19;;;;;;;1.67;0.40;;;3.10;99.90;;;;;;5055123;28;20079;-77
2021/12/02 06:09:46;;;;;;;0.47;0.47;;;3.20;99.90;;;;;;5054595;28;20055;-74
2021/12/02 06:12:14;;;;;;;0.23;0.23;;;3.20;99.90;;;;;;5054267;28;20060;-74
2021/12/02 06:14:42;;;;;;;3.33;0.83;;;3.20;99.90;;;;;;5054201;28;20051;-77
2021/12/02 06:17:09;;;;;;;0.37;0.37;;;3.20;99.90;;;;;;5056480;28;20045;-74
2021/12/02 06:19:37;;;;;;;0.43;0.43;;;3.30;99.90;;;;;;5057139;28;20064;-78
2021/12/02 06:22:04;;;;;;;0.30;0.30;;;3.30;99.90;;;;;;5055696;28;20455;-76
2021/12/02 06:24:42;;;;;;;3.60;0.40;;;3.30;99.90;;;;;;5053800;28;20126;-75
2021/12/02 06:27:11;;;;;;;1.50;0.40;;;3.30;99.90;;;;;;5053831;28;20061;-76
2021/12/02 06:29:38;;;;;;;0.67;0.20;;;3.30;99.90;;;;;;5055225;28;20472;-75
2021/12/02 06:32:07;;;;;;;0.50;0.50;;;3.30;99.90;;;;;;5053990;28;20053;-76
2021/12/02 06:37:30;;;;;;;0.23;0.23;;;3.20;99.90;;;;;;5055928;28;20095;-80
2021/12/02 06:40:00;;;;;;;1.40;0.40;;;3.20;99.90;;;;;;5056336;28;20052;-82
2021/12/02 06:42:33;;;;;;;0.20;0.20;;;3.20;99.90;;;;;;5057467;28;20056;-80
2021/12/02 06:45:01;;;;;;;0.33;0.33;;;3.10;99.90;;;;;;5054727;28;20571;-76
2021/12/02 06:47:31;;;;;;;0.27;0.27;;;3.20;99.90;;;;;;5053959;28;20140;-76
2021/12/02 06:50:02;;;;;;;0.50;0.40;;;3.10;99.90;;;;;;5054144;28;20045;-76
2021/12/02 06:52:32;;;;;;;1.58;0.40;;;3.10;99.90;;;;;;5053529;28;20049;-76
2021/12/02 06:55:00;;;;;;;0.70;0.50;;;3.10;99.90;;;;;;5052940;28;20103;-76
2021/12/02 06:57:30;;;;;;;0.50;0.30;;;3.10;99.90;;;;;;5053186;28;20051;-76
2021/12/02 06:59:59;;;;;;;0.50;0.30;;;3.10;99.90;;;;;;5053081;28;20045;-73
2021/12/02 07:02:25;;;;;;;0.57;0.57;;;3.10;99.90;;;;;;5053096;28;20519;-73
2021/12/02 07:04:53;;;;;;;1.90;0.97;;;3.10;99.90;;;;;;5052692;28;20087;-71
2021/12/02 07:07:21;;;;;;;0.10;0.10;;;3.10;99.90;;;;;;5053481;28;20057;-73
2021/12/02 07:09:48;;;;;;;0.77;0.70;;;3.00;99.90;;;;;;5053294;28;20421;-75
2021/12/02 07:12:18;;;;;;;0.57;0.43;;;3.00;99.90;;;;;;5053581;28;20041;-74
2021/12/02 07:14:47;;;;;;;0.97;0.30;;;3.00;99.90;;;;;;5053522;28;20049;-77
2021/12/02 07:17:15;;;;;;;2.20;0.40;;;3.00;99.90;;;;;;5053354;28;20071;-75
2021/12/02 07:19:43;;;;;;;2.30;1.00;;;3.00;99.90;;;;;;5053292;28;20569;-75
2021/12/02 07:22:09;;;;;;;0.60;0.60;;;3.00;99.90;;;;;;5054358;28;20131;-77
2021/12/02 07:24:37;;;;;;;0.30;0.30;;;2.90;99.90;;;;;;5053823;28;20094;-73
2021/12/02 07:27:05;;;;;;;1.57;0.50;;;2.90;99.90;;;;;;5053874;28;20106;-77
2021/12/02 07:29:32;;;;;;;0.43;0.23;;;2.90;99.90;;;;;;5052719;28;20045;-74
2021/12/02 07:32:03;;;;;;;0.30;0.30;;;2.90;99.90;;;;;;5052900;28;20052;-75
2021/12/02 07:34:34;;;;;;;0.23;0.23;;;2.90;99.90;;;;;;5052705;28;20055;-75
2021/12/02 07:37:01;;;;;;;3.70;0.90;;;3.00;99.90;;;;;;5053745;28;20045;-78
2021/12/02 07:39:30;;;;;;;3.73;0.40;;;3.10;99.90;;;;;;5054035;28;20045;-74
2021/12/02 07:41:58;;;;;;;0.30;0.30;;;3.20;99.90;;;;;;5052959;28;20087;-76
2021/12/02 07:44:25;;;;;;;0.97;0.57;;;3.10;99.90;;;;;;5052739;28;20503;-76
2021/12/02 07:46:55;;;;;;;0.37;0.27;;;3.00;99.90;;;;;;5053962;28;20048;-80
2021/12/02 07:49:22;;;;;;;2.43;1.33;;;3.00;99.90;;;;;;5052744;28;20136;-74
2021/12/02 07:51:51;;;;;;;3.50;0.40;;;3.00;99.90;;;;;;5052206;28;20041;-73
2021/12/02 07:54:18;;;;;;;0.20;0.20;;;2.90;99.90;;;;;;5051981;28;20048;-72
2021/12/02 07:56:47;;;;;;;0.50;0.50;;;2.80;99.90;;;;;;5052512;28;20083;-77
2021/12/02 07:59:18;;;;;;;1.20;0.73;;;2.80;99.90;;;;;;5052425;28;20064;-78
2021/12/02 08:01:45;;;;;;;0.70;0.32;;;2.90;99.90;;;;;;5052792;28;20071;-77
2021/12/02 08:04:12;;;;;;;0.40;0.40;;;3.00;99.90;;;;;;5053355;28;20103;-76
2021/12/02 08:06:38;;;;;;;0.50;0.50;;;3.10;99.90;;;;;;5053218;28;20048;-77
2021/12/02 08:09:06;;;;;;;1.23;0.60;;;3.20;99.90;;;;;;5052287;28;20049;-75
2021/12/02 08:11:33;;;;;;;1.87;0.73;;;3.20;99.90;;;;;;5052266;28;20048;-74
2021/12/02 08:14:01;;;;;;;1.20;0.43;;;3.20;99.90;;;;;;5051475;28;20094;-75
2021/12/02 08:16:29;;;;;;;0.63;0.63;;;3.10;99.90;;;;;;5051835;28;20548;-75
2021/12/02 08:19:00;;;;;;;0.67;0.43;;;3.10;99.90;;;;;;5052650;28;20095;-75
2021/12/02 08:21:27;;;;;;;0.40;0.40;;;3.10;99.90;;;;;;5052407;28;20087;-75
2021/12/02 08:23:53;;;;;;;0.90;0.70;;;3.10;99.90;;;;;;5051953;28;20319;-72
2021/12/02 08:26:20;;;;;;;0.30;0.30;;;3.10;99.90;;;;;;5051583;28;20049;-75
2021/12/02 08:28:47;;;;;;;0.10;0.10;;;3.00;99.90;;;;;;5051930;28;20067;-74
2021/12/02 08:31:14;;;;;;;1.97;0.30;;;3.00;99.90;;;;;;5050821;28;20053;-74
2021/12/02 08:33:47;;;;;;;0.90;0.57;;;3.10;99.90;;;;;;5052061;28;20073;-77
2021/12/02 08:36:14;;;;;;;0.40;0.40;;;3.00;99.90;;;;;;5052689;28;20056;-74
2021/12/02 08:38:40;;;;;;;0.27;0.27;;;3.10;99.90;;;;;;5053450;28;20057;-76
2021/12/02 08:41:07;;;;;;;0.20;0.20;;;3.10;99.90;;;;;;5054823;28;20048;-74
2021/12/02 08:43:34;;;;;;;2.73;0.70;;;3.00;99.90;;;;;;5053079;28;20052;-76
2021/12/02 08:46:01;;;;;;;0.33;0.33;;;3.10;99.90;;;;;;5056191;28;20063;-77
2021/12/02 08:48:28;;;;;;;0.20;0.20;;;3.30;99.90;;;;;;5055975;28;20049;-74
2021/12/02 08:50:56;;;;;;;0.40;0.40;;;3.20;99.90;;;;;;5053144;28;20047;-75
2021/12/02 08:53:23;;;;;;;3.33;1.20;;;3.20;99.90;;;;;;5054203;28;20049;-75
2021/12/02 08:55:49;;;;;;;2.30;0.40;;;3.20;99.90;;;;;;5053882;28;20049;-75
2021/12/02 08:58:16;;;;;;;0.77;0.77;;;3.20;99.90;;;;;;5055264;28;20041;-77
2021/12/02 09:00:43;;;;;;;0.90;0.90;;;3.30;99.90;;;;;;5055944;28;20501;-77
2021/12/02 09:03:12;;;;;;;2.20;0.80;;;3.30;99.90;;;;;;5052760;28;20071;-75
2021/12/02 09:05:39;;;;;;;1.77;0.40;;;3.40;99.90;;;;;;5051273;28;20049;-77
2021/12/02 09:08:08;;;;;;;0.43;0.43;;;3.40;99.90;;;;;;5051985;28;20045;-75
2021/12/02 09:10:35;;;;;;;0.53;0.53;;;3.30;99.90;;;;;;5052513;28;20459;-77
2021/12/02 09:13:07;;;;;;;0.50;0.40;;;3.70;99.90;;;;;;5053223;28;20101;-76
2021/12/02 09:15:34;;;;;;;4.57;2.05;;;4.70;99.90;;;;;;5051399;28;20075;-75
2021/12/02 09:18:01;;;;;;;0.20;0.20;;;4.70;99.90;;;;;;5051716;28;20390;-76
2021/12/02 09:20:27;;;;;;;2.67;0.77;;;5.40;99.90;;;;;;5059118;28;20044;-78
2021/12/02 09:22:54;;;;;;;1.20;0.60;;;5.60;99.90;;;;;;5056811;28;20044;-77
2021/12/02 09:25:22;;;;;;;1.07;0.40;;;7.20;99.90;;;;;;5052090;28;20099;-77
2021/12/02 09:27:49;;;;;;;7.93;1.93;;;8.20;99.90;;;;;;5052147;28;20063;-74
2021/12/02 09:30:18;;;;;;;1.20;0.83;;;7.80;99.90;;;;;;5051456;28;20057;-76
2021/12/02 09:32:44;;;;;;;5.60;2.13;;;8.80;99.90;;;;;;5052945;28;20055;-76
2021/12/02 09:35:12;;;;;;;2.03;1.20;;;9.40;98.50;;;;;;5052315;28;20554;-77
2021/12/02 09:37:39;;;;;;;0.70;0.70;;;9.90;96.30;;;;;;5053134;28;20390;-76
2021/12/02 09:40:10;;;;;;;1.77;1.50;;;10.80;91.60;;;;;;5051743;28;20041;-75
2021/12/02 09:42:39;;;;;;;0.57;0.40;;;10.50;90.50;;;;;;5052267;28;20044;-75
2021/12/02 09:45:07;;;;;;;2.90;1.15;;;11.30;86.20;;;;;;5054440;28;20056;-74
2021/12/02 09:47:36;;;;;;;0.85;0.52;;;11.30;83.70;;;;;;5054846;28;20478;-73
2021/12/02 09:50:08;;;;;;;1.10;0.75;;;12.30;82.10;;;;;;5055061;28;20045;-76
2021/12/02 09:52:39;;;;;;;0.95;0.80;;;13.10;73.80;;;;;;5054837;28;20053;-75
2021/12/02 09:55:11;;;;;;;2.53;0.45;;;13.30;72.10;;;;;;5054555;28;20045;-76
2021/12/02 09:57:42;;;;;;;1.05;0.47;;;13.20;70.40;;;;;;5055804;28;20053;-75
2021/12/02 10:00:16;;;;;;;2.58;1.15;;;13.80;67.10;;;;;;5055368;28;20080;-78
2021/12/02 10:02:52;;;;;;;2.78;2.15;;;13.30;64.80;;;;;;5055725;28;20110;-77
2021/12/02 10:05:33;;;;;;;1.88;0.70;;;12.40;70.50;;;;;;5053993;28;20484;-77
2021/12/02 10:08:04;;;;;;;1.77;0.50;;;13.20;67.30;;;;;;5054468;28;20080;-74
2021/12/02 10:10:34;;;;;;;0.43;0.40;;;13.40;66.20;;;;;;5055422;28;20072;-78
2021/12/02 10:13:14;;;;;;;2.00;0.40;;;13.90;63.10;;;;;;5061140;28;20052;-81
2021/12/02 10:15:50;;;;;;;0.57;0.40;;;12.70;66.10;;;;;;5058085;28;20982;-78
2021/12/02 10:18:17;;;;;;;1.25;0.30;;;13.10;65.00;;;;;;5055474;28;20135;-76
2021/12/02 10:20:48;;;;;;;1.65;0.50;;;12.40;64.70;;;;;;5054510;28;20053;-75
2021/12/02 10:23:18;;;;;;;1.23;0.35;;;12.10;65.00;;;;;;5054209;28;20106;-78
2021/12/02 10:25:48;;;;;;;2.58;0.55;;;12.20;66.10;;;;;;5054365;28;20044;-79
2021/12/02 10:28:18;;;;;;;0.38;0.20;;;13.50;63.90;;;;;;5054490;28;20053;-73
2021/12/02 10:30:48;;;;;;;0.50;0.50;;;12.80;61.60;;;;;;5053854;28;20053;-75
2021/12/02 10:33:28;;;;;;;1.05;0.50;;;12.90;62.40;;;;;;5054514;28;20566;-77
2021/12/02 10:35:54;;;;;;;0.20;0.10;;;13.10;65.10;;;;;;5056010;28;20110;-79
2021/12/02 10:38:44;;;;;;;0.30;0.30;;;13.10;60.60;;;;;;5056063;28;20105;-76
2021/12/02 10:41:14;;;;;;;1.15;0.40;;;14.50;60.30;;;;;;5049765;28;20045;-76
2021/12/02 10:44:05;;;;;;;3.03;0.40;;;15.10;60.60;;;;;;5053897;28;20559;-76
2021/12/02 10:46:33;;;;;;;0.35;0.35;;;15.20;57.20;;;;;;5053866;28;20558;-77
2021/12/02 10:49:00;;;;;;;0.40;0.40;;;14.90;57.70;;;;;;5054423;28;20048;-77
2021/12/02 10:51:43;;;;;;;0.57;0.38;;;14.20;58.60;;;;;;5054130;28;20053;-76
2021/12/02 10:54:14;;;;;;;3.45;1.75;;;14.30;58.90;;;;;;5052014;28;20045;-74
2021/12/02 10:56:42;;;;;;;2.13;1.98;;;14.60;58.10;;;;;;5053887;28;20041;-76
2021/12/02 10:59:42;;;;;;;0.85;0.57;;;13.10;58.40;;;;;;5053464;28;20451;-74
2021/12/02 11:02:17;;;;;;;2.60;0.60;;;13.40;59.70;;;;;;5053559;28;20076;-77
2021/12/02 11:04:46;;;;;;;3.63;0.40;;;14.20;59.20;;;;;;5052757;28;20513;-75
2021/12/02 11:07:21;;;;;;;0.75;0.60;;;14.90;58.60;;;;;;5053880;28;20055;-76
2021/12/02 11:09:49;;;;;;;1.85;0.65;;;14.70;57.70;;;;;;5053344;28;20045;-76
2021/12/02 11:12:19;;;;;;;1.95;0.70;;;14.70;58.40;;;;;;5053554;28;20389;-76
2021/12/02 11:15:02;;;;;;;1.13;0.52;;;14.00;57.70;;;;;;5053089;28;20065;-74
2021/12/02 11:17:31;;;;;;;1.45;0.38;;;12.80;58.60;;;;;;5053167;28;20048;-75
2021/12/02 11:20:00;;;;;;;1.48;0.70;;;14.00;60.10;;;;;;5052952;28;20048;-76
2021/12/02 11:22:29;;;;;;;0.60;0.30;;;15.00;58.10;;;;;;5053265;28;20049;-75
2021/12/02 11:24:57;;;;;;;1.45;0.45;;;15.30;55.80;;;;;;5052652;28;20056;-75
2021/12/02 11:27:26;;;;;;;1.85;0.75;;;15.00;55.50;;;;;;5054030;28;20102;-76
2021/12/02 11:30:00;;;;;;;0.88;0.52;;;16.00;55.00;;;;;;5053685;28;20111;-76
2021/12/02 11:32:30;;;;;;;0.45;0.38;;;16.30;54.50;;;;;;5052752;28;20103;-74
2021/12/02 11:35:19;;;;;;;0.47;0.40;;;16.50;53.20;;;;;;5052212;28;20106;-76
2021/12/02 11:37:48;;;;;;;2.35;1.45;;;16.00;53.40;;;;;;5053046;28;20132;-76
2021/12/02 11:40:19;;;;;;;5.05;2.97;;;15.60;54.30;;;;;;5052857;28;20053;-76
2021/12/02 11:42:47;;;;;;;3.65;1.50;;;16.10;54.10;;;;;;5052651;28;20527;-75
2021/12/02 11:45:17;;;;;;;0.75;0.50;;;16.60;52.60;;;;;;5055063;28;20048;-75
2021/12/02 11:47:44;;;;;;;2.83;0.68;;;16.40;52.00;;;;;;5052697;28;20041;-76
2021/12/02 11:50:13;;;;;;;3.42;0.60;;;15.40;52.70;;;;;;5052858;28;20045;-76
2021/12/02 11:52:41;;;;;;;1.88;0.57;;;14.70;53.00;;;;;;5052660;28;20045;-76
2021/12/02 11:55:12;;;;;;;0.80;0.40;;;15.30;55.00;;;;;;5051965;28;20045;-76
2021/12/02 11:57:38;;;;;;;1.20;0.52;;;15.30;54.40;;;;;;5052501;28;20489;-76
2021/12/02 12:00:08;;;;;;;0.30;0.30;;;15.10;54.20;;;;;;5052532;28;20053;-76
2021/12/02 12:02:37;;;;;;;0.63;0.40;;;14.80;54.90;;;;;;5051136;28;20049;-76
2021/12/02 12:05:06;;;;;;;2.22;0.35;;;14.60;54.80;;;;;;5052768;28;20053;-76
2021/12/02 12:07:46;;;;;;;0.75;0.52;;;14.40;54.90;;;;;;5052099;28;20048;-76
2021/12/02 12:10:15;;;;;;;2.47;1.25;;;15.10;55.60;;;;;;5051945;28;20485;-75
2021/12/02 12:12:43;;;;;;;6.00;3.95;;;14.20;55.50;;;;;;5052478;28;20098;-78
2021/12/02 12:15:30;;;;;;;0.75;0.70;;;13.80;56.70;;;;;;5053212;28;20045;-79
2021/12/02 12:18:02;;;;;;;1.55;0.90;;;13.50;57.90;;;;;;5053175;28;20041;-77
2021/12/02 12:20:52;;;;;;;1.52;0.63;;;14.20;56.50;;;;;;5053627;28;20041;-80
2021/12/02 12:23:46;;;;;;;2.53;0.95;;;15.20;55.90;;;;;;5053327;28;20041;-76
2021/12/02 12:26:19;;;;;;;1.17;0.70;;;15.30;54.40;;;;;;5051541;28;20049;-76
2021/12/02 12:29:18;;;;;;;1.65;0.77;;;15.60;54.50;;;;;;5051729;28;20401;-76
2021/12/02 12:32:31;;;;;;;2.28;0.52;;;14.80;54.00;;;;;;5052073;28;20085;-76
2021/12/02 12:35:07;;;;;;;1.33;0.50;;;14.60;55.80;;;;;;5051339;28;20139;-76
2021/12/02 12:37:48;;;;;;;2.28;0.60;;;14.80;56.00;;;;;;5052111;28;20136;-75
2021/12/02 12:40:19;;;;;;;4.70;0.85;;;15.10;55.70;;;;;;5053767;28;20144;-74
2021/12/02 12:42:48;;;;;;;1.33;0.35;;;14.90;55.30;;;;;;5052565;28;20049;-73
2021/12/02 12:45:25;;;;;;;0.43;0.20;;;13.60;56.80;;;;;;5051139;28;20095;-74
2021/12/02 12:47:54;;;;;;;1.27;0.50;;;11.90;57.30;;;;;;5052086;28;20106;-75
2021/12/02 12:50:28;;;;;;;0.30;0.30;;;10.50;60.90;;;;;;5052216;28;20508;-76
2021/12/02 12:52:55;;;;;;;0.80;0.40;;;8.90;65.40;;;;;;5052151;28;20059;-75
2021/12/02 12:55:24;;;;;;;0.50;0.50;;;8.70;68.30;;;;;;5051195;28;20097;-74
2021/12/02 12:58:08;;;;;;;0.65;0.60;;;7.80;70.40;;;;;;5051769;28;20049;-71
2021/12/02 13:00:37;;;;;;;0.43;0.43;;;8.40;70.20;;;;;;5051677;28;20045;-78
2021/12/02 13:03:11;;;;;;;0.70;0.55;;;7.40;72.10;;;;;;5053856;28;20045;-76
2021/12/02 13:05:46;;;;;;;2.05;0.55;;;6.90;76.00;;;;;;5051802;28;20057;-78
2021/12/02 13:08:17;;;;;;;2.43;1.17;;;6.30;83.00;;;;;;5052095;28;20316;-76
2021/12/02 13:10:52;;;;;;;1.65;1.30;;;5.90;90.90;;;;;;5053814;28;20404;-76
2021/12/02 13:13:26;;;;;;;1.47;0.53;;;5.80;94.40;;;;;;5059527;28;20048;-77
2021/12/02 13:15:53;;;;;;;0.53;0.47;;;5.70;96.90;;;;;;5052672;28;20049;-76
2021/12/02 13:18:42;;;;;;;0.73;0.50;;;5.40;96.60;;;;;;5055943;28;20073;-75
2021/12/02 13:21:21;;;;;;;1.60;0.50;;;5.10;98.30;;;;;;5054958;28;20136;-74
2021/12/02 13:23:55;;;;;;;2.20;0.80;;;5.50;98.00;;;;;;5055584;28;20521;-73
2021/12/02 13:26:24;;;;;;;0.50;0.50;;;5.70;97.80;;;;;;5057192;28;20053;-75
2021/12/02 13:28:54;;;;;;;2.87;1.47;;;5.40;99.90;;;;;;5057617;28;20341;-77
2021/12/02 13:31:23;;;;;;;3.10;2.00;;;5.10;99.90;;;;;;5057014;28;20053;-75
2021/12/02 13:33:52;;;;;;;0.40;0.40;;;5.00;99.90;;;;;;5055592;28;20098;-74